createdAt,value
2018-11-05T00:00:20.123Z,178.40
2018-11-05T00:02:50.640Z,177.27
2018-11-05T00:05:19.378Z,168.63
2018-11-05T00:07:47.995Z,168.73
2018-11-05T00:10:16.778Z,170.30
2018-11-05T00:12:45.392Z,152.50
2018-11-05T00:15:14.084Z,169.40
2018-11-05T00:17:42.744Z,173.30
2018-11-05T00:20:12.094Z,158.50
2018-11-05T00:22:40.771Z,165.93
2018-11-05T00:25:11.424Z,164.73
2018-11-05T00:27:40.549Z,166.00
2018-11-05T00:30:10.748Z,173.17
2018-11-05T00:32:39.407Z,169.27
2018-11-05T00:35:08.058Z,157.03
2018-11-05T00:37:36.753Z,165.80
2018-11-05T00:40:08.095Z,170.27
2018-11-05T00:42:36.745Z,168.83
2018-11-05T00:45:06.877Z,168.70
2018-11-05T00:47:35.543Z,168.50
2018-11-05T00:50:05.065Z,161.77
2018-11-05T00:52:33.675Z,171.07
2018-11-05T00:55:02.970Z,162.13
2018-11-05T00:57:31.671Z,168.50
2018-11-05T01:00:00.704Z,159.53
2018-11-05T01:02:29.521Z,172.67
2018-11-05T01:04:58.234Z,190.47
2018-11-05T01:07:26.872Z,167.87
2018-11-05T01:09:55.525Z,171.47
2018-11-05T01:12:24.172Z,182.23
2018-11-05T01:14:52.820Z,163.73
2018-11-05T01:17:21.460Z,173.97
2018-11-05T01:19:50.117Z,180.63
2018-11-05T01:22:18.798Z,180.37
2018-11-05T01:24:47.691Z,154.87
2018-11-05T01:27:16.314Z,166.27
2018-11-05T01:29:45.393Z,171.77
2018-11-05T01:32:15.366Z,157.33
2018-11-05T01:34:45.920Z,172.37
2018-11-05T01:37:14.555Z,188.67
2018-11-05T01:39:43.153Z,189.37
2018-11-05T01:42:11.788Z,186.23
2018-11-05T01:44:40.415Z,176.73
2018-11-05T01:47:09.207Z,179.93
2018-11-05T01:52:16.899Z,180.60
2018-11-05T01:54:45.633Z,174.90
2018-11-05T01:57:16.523Z,180.87
2018-11-05T01:59:45.602Z,177.47
2018-11-05T02:02:14.317Z,159.77
2018-11-05T02:04:43.645Z,178.93
2018-11-05T02:07:12.268Z,159.10
2018-11-05T02:09:40.880Z,179.27
2018-11-05T02:12:09.523Z,200.13
2018-11-05T02:14:38.148Z,177.87
2018-11-05T02:17:06.836Z,178.90
2018-11-05T02:19:35.492Z,186.47
2018-11-05T02:22:04.162Z,172.33
2018-11-05T02:24:33.202Z,178.87
2018-11-05T02:27:07.163Z,185.83
2018-11-05T02:29:35.793Z,183.03
2018-11-05T02:32:04.581Z,182.23
2018-11-05T02:34:33.280Z,182.30
2018-11-05T02:37:02.187Z,191.70
2018-11-05T02:39:30.866Z,179.57
2018-11-05T02:41:59.528Z,197.33
2018-11-05T02:44:28.114Z,193.60
2018-11-05T02:46:56.760Z,184.33
2018-11-05T02:49:25.390Z,187.57
2018-11-05T02:51:54.035Z,195.03
2018-11-05T02:54:22.649Z,186.17
2018-11-05T02:56:51.237Z,188.07
2018-11-05T02:59:19.833Z,211.97
2018-11-05T03:01:48.466Z,188.70
2018-11-05T03:04:17.064Z,197.40
2018-11-05T03:06:45.723Z,203.73
2018-11-05T03:09:14.339Z,199.20
2018-11-05T03:11:42.976Z,217.43
2018-11-05T03:14:11.618Z,206.67
2018-11-05T03:16:40.228Z,192.40
2018-11-05T03:19:09.007Z,190.73
2018-11-05T03:21:37.614Z,190.67
2018-11-05T03:24:06.369Z,197.27
2018-11-05T03:26:35.014Z,175.97
2018-11-05T03:29:03.697Z,190.57
2018-11-05T03:31:32.305Z,178.57
2018-11-05T03:34:01.003Z,197.70
2018-11-05T03:36:29.808Z,181.13
2018-11-05T03:38:58.562Z,206.27
2018-11-05T03:41:27.161Z,195.80
2018-11-05T03:43:55.877Z,177.70
2018-11-05T03:46:24.562Z,186.90
2018-11-05T03:48:53.381Z,179.30
2018-11-05T03:51:22.002Z,186.30
2018-11-05T03:53:50.710Z,192.60
2018-11-05T03:56:19.514Z,155.20
2018-11-05T03:58:48.265Z,178.47
2018-11-05T04:01:16.956Z,156.00
2018-11-05T04:03:45.902Z,165.63
2018-11-05T04:06:14.546Z,164.40
2018-11-05T04:08:43.266Z,163.47
2018-11-05T04:11:11.915Z,150.67
2018-11-05T04:13:40.526Z,154.97
2018-11-05T04:16:09.216Z,153.87
2018-11-05T04:18:37.838Z,158.60
2018-11-05T04:21:06.606Z,159.53
2018-11-05T04:23:35.286Z,159.63
2018-11-05T04:26:04.113Z,138.00
2018-11-05T04:28:32.809Z,153.07
2018-11-05T04:31:01.420Z,145.13
2018-11-05T04:33:30.032Z,162.60
2018-11-05T04:35:58.859Z,152.23
2018-11-05T04:38:27.446Z,142.37
2018-11-05T04:40:56.342Z,150.77
2018-11-05T04:43:24.978Z,155.10
2018-11-05T04:45:53.778Z,158.07
2018-11-05T04:48:22.574Z,150.43
2018-11-05T04:50:51.323Z,148.57
2018-11-05T04:53:19.915Z,172.40
2018-11-05T04:55:48.774Z,159.63
2018-11-05T04:58:17.420Z,168.27
2018-11-05T05:00:46.280Z,162.30
2018-11-05T05:03:14.941Z,150.73
2018-11-05T05:05:43.570Z,170.07
2018-11-05T05:08:12.279Z,183.13
2018-11-05T05:10:40.961Z,176.13
2018-11-05T05:13:09.600Z,207.20
2018-11-05T05:15:38.562Z,217.50
2018-11-05T05:18:08.013Z,196.37
2018-11-05T05:20:36.646Z,191.77
2018-11-05T05:23:06.441Z,196.27
2018-11-05T05:25:34.972Z,212.97
2018-11-05T05:28:04.001Z,202.10
2018-11-05T05:30:32.634Z,213.10
2018-11-05T05:33:01.506Z,186.10
2018-11-05T05:35:30.071Z,203.90
2018-11-05T05:37:58.707Z,214.23
2018-11-05T05:40:30.042Z,211.17
2018-11-05T05:42:58.768Z,203.93
2018-11-05T05:45:31.759Z,203.47
2018-11-05T05:48:01.124Z,201.90
2018-11-05T05:50:29.736Z,192.63
2018-11-05T05:52:58.618Z,213.87
2018-11-05T05:55:27.485Z,208.13
2018-11-05T05:57:56.903Z,207.03
2018-11-05T06:00:25.599Z,192.00
2018-11-05T06:02:54.627Z,195.40
2018-11-05T06:05:23.311Z,214.63
2018-11-05T06:07:51.958Z,199.63
2018-11-05T06:10:20.600Z,186.77
2018-11-05T06:12:49.226Z,192.10
2018-11-05T06:15:18.000Z,172.97
2018-11-05T06:17:46.644Z,195.53
2018-11-05T06:20:17.195Z,187.67
2018-11-05T06:22:46.715Z,189.63
2018-11-05T06:25:15.590Z,173.80
2018-11-05T06:27:44.315Z,191.57
2018-11-05T06:30:15.654Z,184.50
2018-11-05T06:32:45.458Z,181.20
2018-11-05T06:35:14.265Z,194.30
2018-11-05T06:37:43.032Z,194.93
2018-11-05T06:40:14.631Z,170.20
2018-11-05T06:42:43.809Z,172.40
2018-11-05T06:45:13.916Z,167.60
2018-11-05T06:47:43.518Z,163.43
2018-11-05T06:50:17.409Z,171.63
2018-11-05T06:52:46.309Z,181.37
2018-11-05T06:55:15.741Z,166.63
2018-11-05T06:57:44.468Z,164.13
2018-11-05T07:00:16.210Z,165.47
2018-11-05T07:02:45.109Z,164.10
2018-11-05T07:05:14.268Z,165.37
2018-11-05T07:07:42.968Z,154.90
2018-11-05T07:10:12.970Z,161.27
2018-11-05T07:12:42.322Z,147.40
2018-11-05T07:15:12.578Z,163.83
2018-11-05T07:17:41.565Z,157.20
2018-11-05T07:20:12.618Z,155.07
2018-11-05T07:22:41.343Z,152.90
2018-11-05T07:25:11.433Z,140.80
2018-11-05T07:27:40.189Z,146.90
2018-11-05T07:30:22.212Z,143.37
2018-11-05T07:32:52.037Z,150.90
2018-11-05T07:35:20.798Z,147.63
2018-11-05T07:37:49.534Z,147.97
2018-11-05T07:40:19.279Z,160.30
2018-11-05T07:42:48.038Z,149.40
2018-11-05T07:45:21.277Z,159.67
2018-11-05T07:47:50.115Z,147.47
2018-11-05T07:50:19.675Z,159.33
2018-11-05T07:52:48.516Z,159.60
2018-11-05T07:55:18.335Z,164.17
2018-11-05T07:57:47.997Z,157.50
2018-11-05T08:00:22.310Z,158.40
2018-11-05T08:02:52.744Z,147.60
2018-11-05T08:05:22.011Z,159.73
2018-11-05T08:07:51.031Z,153.00
2018-11-05T08:10:19.850Z,149.20
2018-11-05T08:12:48.583Z,162.57
2018-11-05T08:15:18.725Z,155.27
2018-11-05T08:17:48.399Z,159.63
2018-11-05T08:20:17.328Z,162.37
2018-11-05T08:22:45.998Z,158.90
2018-11-05T08:25:15.671Z,143.93
2018-11-05T08:27:44.441Z,146.77
2018-11-05T08:30:21.502Z,163.53
2018-11-05T08:32:50.333Z,180.77
2018-11-05T08:35:19.268Z,162.80
2018-11-05T08:37:53.216Z,158.53
2018-11-05T08:40:23.967Z,159.87
2018-11-05T08:42:53.481Z,170.83
2018-11-05T08:45:23.501Z,163.67
2018-11-05T08:47:52.208Z,174.20
2018-11-05T08:50:22.326Z,159.83
2018-11-05T08:52:50.970Z,155.33
2018-11-05T08:55:21.037Z,171.83
2018-11-05T08:57:49.834Z,159.73
2018-11-05T09:00:24.225Z,157.00
2018-11-05T09:02:53.524Z,157.67
2018-11-05T09:05:22.461Z,144.97
2018-11-05T09:07:52.141Z,143.80
2018-11-05T09:10:20.995Z,160.17
2018-11-05T09:12:49.618Z,165.07
2018-11-05T09:15:19.547Z,139.40
2018-11-05T09:17:48.546Z,143.50
2018-11-05T09:20:18.192Z,135.17
2018-11-05T09:22:47.380Z,140.30
2018-11-05T09:25:16.788Z,147.10
2018-11-05T09:27:45.524Z,140.47
2018-11-05T09:30:17.042Z,135.37
2018-11-05T09:32:46.240Z,137.17
2018-11-05T09:35:15.001Z,144.70
2018-11-05T09:37:43.718Z,137.37
2018-11-05T09:40:14.897Z,136.30
2018-11-05T09:42:44.426Z,140.50
2018-11-05T09:45:15.462Z,132.33
2018-11-05T09:47:44.774Z,121.70
2018-11-05T09:50:16.911Z,142.97
2018-11-05T09:52:45.710Z,128.27
2018-11-05T09:55:14.927Z,125.70
2018-11-05T09:57:43.698Z,126.57
2018-11-05T10:00:13.983Z,122.20
2018-11-05T10:02:48.020Z,133.63
2018-11-05T10:05:17.130Z,131.03
2018-11-05T10:07:46.123Z,127.67
2018-11-05T10:10:15.835Z,125.90
2018-11-05T10:12:44.846Z,140.97
2018-11-05T10:15:14.600Z,138.67
2018-11-05T10:17:43.342Z,127.03
2018-11-05T10:20:15.349Z,131.23
2018-11-05T10:22:44.537Z,144.17
2018-11-05T10:25:13.783Z,135.47
2018-11-05T10:27:42.526Z,132.77
2018-11-05T10:30:13.602Z,140.23
2018-11-05T10:32:42.850Z,136.60
2018-11-05T10:35:12.127Z,141.40
2018-11-05T10:37:40.978Z,150.17
2018-11-05T10:40:13.697Z,136.73
2018-11-05T10:42:43.198Z,130.60
2018-11-05T10:45:13.363Z,129.13
2018-11-05T10:47:42.408Z,124.50
2018-11-05T10:50:12.593Z,137.07
2018-11-05T10:52:41.309Z,141.83
2018-11-05T10:55:10.457Z,144.87
2018-11-05T10:57:39.668Z,145.37
2018-11-05T11:00:30.285Z,133.80
2018-11-05T11:03:04.017Z,139.23
2018-11-05T11:05:33.050Z,147.43
2018-11-05T11:08:02.555Z,148.97
2018-11-05T11:10:32.423Z,132.47
2018-11-05T11:13:01.140Z,144.37
2018-11-05T11:15:30.165Z,150.63
2018-11-05T11:17:59.166Z,146.27
2018-11-05T11:20:27.847Z,137.43
2018-11-05T11:22:56.588Z,142.73
2018-11-05T11:25:25.314Z,147.33
2018-11-05T11:27:54.134Z,155.47
2018-11-05T11:30:22.798Z,149.83
2018-11-05T11:32:52.658Z,145.13
2018-11-05T11:35:21.368Z,147.87
2018-11-05T11:37:50.104Z,137.50
2018-11-05T11:40:20.350Z,144.00
2018-11-05T11:42:49.655Z,143.43
2018-11-05T11:45:19.629Z,136.33
2018-11-05T11:47:48.302Z,143.00
2018-11-05T11:50:17.580Z,130.40
2018-11-05T11:52:46.765Z,140.57
2018-11-05T11:55:17.772Z,123.10
2018-11-05T11:57:46.619Z,125.80
2018-11-05T12:00:21.515Z,134.00
2018-11-05T12:02:50.591Z,135.63
2018-11-05T12:05:19.449Z,129.23
2018-11-05T12:07:47.994Z,143.00
2018-11-05T12:10:22.674Z,137.20
2018-11-05T12:12:52.075Z,134.47
2018-11-05T12:15:21.810Z,135.20
2018-11-05T12:17:51.619Z,131.80
2018-11-05T12:20:21.686Z,136.30
2018-11-05T12:22:50.859Z,127.03
2018-11-05T12:25:19.558Z,122.57
2018-11-05T12:27:48.287Z,126.90
2018-11-05T12:30:19.088Z,117.63
2018-11-05T12:32:48.699Z,120.77
2018-11-05T12:35:17.445Z,121.87
2018-11-05T12:37:47.254Z,124.97
2018-11-05T12:40:16.997Z,119.80
2018-11-05T12:42:46.766Z,121.33
2018-11-05T12:45:15.486Z,129.17
2018-11-05T12:47:44.244Z,136.40
2018-11-05T12:50:15.626Z,123.90
2018-11-05T12:52:45.490Z,114.67
2018-11-05T12:55:19.165Z,115.17
2018-11-05T12:57:48.210Z,109.30
2018-11-05T13:00:19.843Z,108.70
2018-11-05T13:03:00.823Z,109.97
2018-11-05T13:05:30.622Z,115.23
2018-11-05T13:07:59.366Z,105.33
2018-11-05T13:10:28.056Z,99.63
2018-11-05T13:12:57.119Z,96.13
2018-11-05T13:15:25.891Z,107.10
2018-11-05T13:17:54.469Z,102.97
2018-11-05T13:20:24.141Z,106.93
2018-11-05T13:22:53.445Z,94.70
2018-11-05T13:25:22.128Z,93.20
2018-11-05T13:27:51.542Z,85.50
2018-11-05T13:30:20.398Z,90.77
2018-11-05T13:32:50.258Z,84.90
2018-11-05T13:35:20.196Z,88.83
2018-11-05T13:37:49.334Z,72.77
2018-11-05T13:40:24.251Z,77.40
2018-11-05T13:42:53.150Z,81.27
2018-11-05T13:45:22.539Z,66.70
2018-11-05T13:47:51.856Z,77.90
2018-11-05T13:50:20.125Z,71.87
2018-11-05T13:52:48.604Z,64.83
2018-11-05T13:55:17.773Z,62.77
2018-11-05T13:57:47.646Z,66.20
2018-11-05T14:00:17.477Z,74.13
2018-11-05T14:02:46.417Z,64.07
2018-11-05T14:05:16.455Z,59.40
2018-11-05T14:07:45.511Z,50.47
2018-11-05T14:10:17.786Z,60.43
2018-11-05T14:12:47.002Z,51.60
2018-11-05T14:15:15.697Z,54.63
2018-11-05T14:17:45.180Z,62.07
2018-11-05T14:20:14.949Z,55.10
2018-11-05T14:22:44.771Z,52.20
2018-11-05T14:25:14.619Z,51.83
2018-11-05T14:27:44.775Z,52.97
2018-11-05T14:30:13.901Z,57.20
2018-11-05T14:32:43.916Z,59.07
2018-11-05T14:35:12.661Z,47.03
2018-11-05T14:37:41.513Z,51.17
2018-11-05T14:40:12.213Z,50.70
2018-11-05T14:42:42.078Z,51.97
2018-11-05T14:45:12.837Z,45.93
2018-11-05T14:47:42.515Z,49.87
2018-11-05T14:50:13.107Z,52.77
2018-11-05T14:52:41.889Z,53.57
2018-11-05T14:55:13.010Z,48.13
2018-11-05T14:57:42.222Z,43.57
2018-11-05T15:00:13.961Z,55.63
2018-11-05T15:02:43.155Z,54.23
2018-11-05T15:05:12.668Z,54.13
2018-11-05T15:07:42.126Z,61.77
2018-11-05T15:10:13.497Z,51.80
2018-11-05T15:12:42.799Z,57.13
2018-11-05T15:15:12.485Z,45.07
2018-11-05T15:17:42.399Z,51.67
2018-11-05T15:20:13.570Z,45.73
2018-11-05T15:22:42.482Z,45.47
2018-11-05T15:25:11.816Z,48.57
2018-11-05T15:27:40.850Z,46.03
2018-11-05T15:30:12.699Z,50.33
2018-11-05T15:32:42.043Z,47.10
2018-11-05T15:35:11.832Z,49.90
2018-11-05T15:37:42.889Z,45.00
2018-11-05T15:40:14.935Z,51.00
2018-11-05T15:42:44.428Z,46.03
2018-11-05T15:45:14.926Z,50.23
2018-11-05T15:47:44.482Z,52.07
2018-11-05T15:50:14.895Z,53.63
2018-11-05T15:52:44.104Z,49.77
2018-11-05T15:55:13.352Z,54.93
2018-11-05T15:57:43.619Z,47.23
2018-11-05T16:00:32.246Z,46.87
2018-11-05T16:03:01.948Z,50.63
2018-11-05T16:05:30.787Z,50.30
2018-11-05T16:08:01.441Z,49.00
2018-11-05T16:10:30.326Z,61.93
2018-11-05T16:12:59.720Z,54.53
2018-11-05T16:15:29.143Z,55.23
2018-11-05T16:17:57.949Z,55.13
2018-11-05T16:20:26.671Z,59.17
2018-11-05T16:22:55.885Z,46.97
2018-11-05T16:25:24.789Z,56.87
2018-11-05T16:27:53.501Z,46.63
2018-11-05T16:30:22.718Z,52.07
2018-11-05T16:32:52.198Z,48.77
2018-11-05T16:35:21.994Z,55.77
2018-11-05T16:37:52.390Z,44.57
2018-11-05T16:40:21.224Z,54.77
2018-11-05T16:42:51.598Z,51.70
2018-11-05T16:45:21.235Z,52.03
2018-11-05T16:47:50.458Z,48.70
2018-11-05T16:50:26.779Z,49.33
2018-11-05T16:52:55.523Z,53.90
2018-11-05T16:55:24.822Z,49.77
2018-11-05T16:57:54.857Z,45.03
2018-11-05T17:00:24.064Z,51.50
2018-11-05T17:02:53.733Z,44.53
2018-11-05T17:05:24.712Z,49.70
2018-11-05T17:07:53.449Z,48.37
2018-11-05T17:10:22.161Z,48.07
2018-11-05T17:12:50.861Z,47.13
2018-11-05T17:15:19.549Z,54.13
2018-11-05T17:17:48.209Z,45.43
2018-11-05T17:20:18.223Z,47.50
2018-11-05T17:22:46.841Z,51.53
2018-11-05T17:25:16.067Z,45.33
2018-11-05T17:27:45.713Z,47.93
2018-11-05T17:30:16.844Z,49.47
2018-11-05T17:32:45.681Z,50.03
2018-11-05T17:35:15.169Z,49.37
2018-11-05T17:37:44.293Z,45.83
2018-11-05T17:40:15.117Z,50.17
2018-11-05T17:42:43.932Z,47.90
2018-11-05T17:45:14.925Z,59.40
2018-11-05T17:47:43.685Z,57.67
2018-11-05T17:50:14.486Z,51.80
2018-11-05T17:52:43.777Z,64.00
2018-11-05T17:55:13.365Z,58.63
2018-11-05T17:57:43.186Z,60.50
2018-11-05T18:00:22.114Z,58.83
2018-11-05T18:02:50.766Z,51.90
2018-11-05T18:05:19.726Z,58.63
2018-11-05T18:07:48.490Z,57.07
2018-11-05T18:10:17.253Z,61.63
2018-11-05T18:12:46.113Z,64.77
2018-11-05T18:15:14.812Z,83.53
2018-11-05T18:17:45.671Z,77.47
2018-11-05T18:20:15.197Z,81.80
2018-11-05T18:22:44.893Z,89.30
2018-11-05T18:25:14.955Z,86.87
2018-11-05T18:27:43.739Z,79.77
2018-11-05T18:30:13.257Z,91.40
2018-11-05T18:32:41.961Z,81.97
2018-11-05T18:35:12.078Z,84.20
2018-11-05T18:37:41.295Z,85.27
2018-11-05T18:40:14.942Z,94.27
2018-11-05T18:42:44.281Z,85.60
2018-11-05T18:45:13.275Z,88.73
2018-11-05T18:47:43.336Z,98.83
2018-11-05T18:50:13.879Z,100.23
2018-11-05T18:52:42.895Z,107.40
2018-11-05T18:55:12.960Z,101.23
2018-11-05T18:57:41.871Z,103.67
2018-11-05T19:00:19.204Z,85.80
2018-11-05T19:02:50.397Z,101.40
2018-11-05T19:05:21.299Z,93.57
2018-11-05T19:07:50.505Z,90.27
2018-11-05T19:10:19.425Z,91.67
2018-11-05T19:12:49.491Z,99.63
2018-11-05T19:15:19.042Z,84.53
2018-11-05T19:17:48.838Z,88.87
2018-11-05T19:20:19.512Z,87.17
2018-11-05T19:22:48.494Z,93.50
2018-11-05T19:25:18.303Z,88.27
2018-11-05T19:27:47.050Z,94.60
2018-11-05T19:30:19.484Z,94.23
2018-11-05T19:32:48.348Z,99.00
2018-11-05T19:35:17.070Z,90.10
2018-11-05T19:37:45.885Z,94.03
2018-11-05T19:40:15.572Z,96.43
2018-11-05T19:42:45.753Z,84.00
2018-11-05T19:45:16.592Z,86.40
2018-11-05T19:47:45.487Z,89.97
2018-11-05T19:50:17.244Z,103.37
2018-11-05T19:52:47.023Z,92.60
2018-11-05T19:55:16.704Z,93.40
2018-11-05T19:57:46.190Z,98.33
2018-11-05T20:00:16.061Z,93.87
2018-11-05T20:02:45.401Z,93.73
2018-11-05T20:05:14.764Z,101.33
2018-11-05T20:07:43.677Z,96.53
2018-11-05T20:10:12.958Z,95.63
2018-11-05T20:12:42.668Z,98.53
2018-11-05T20:15:11.769Z,91.40
2018-11-05T20:17:41.993Z,107.67
2018-11-05T20:20:12.810Z,92.30
2018-11-05T20:22:41.559Z,104.70
2018-11-05T20:25:10.458Z,99.77
2018-11-05T20:27:40.348Z,100.17
2018-11-05T20:30:13.982Z,100.50
2018-11-05T20:32:43.565Z,93.60
2018-11-05T20:35:12.062Z,90.87
2018-11-05T20:37:40.771Z,100.70
2018-11-05T20:40:12.525Z,94.30
2018-11-05T20:42:41.853Z,102.67
2018-11-05T20:45:10.597Z,104.43
2018-11-05T20:47:39.674Z,102.57
2018-11-05T20:50:09.388Z,99.90
2018-11-05T20:52:38.414Z,109.30
2018-11-05T20:55:07.930Z,111.53
2018-11-05T20:57:36.944Z,103.97
2018-11-05T21:00:07.191Z,91.30
2018-11-05T21:02:35.982Z,93.93
2018-11-05T21:05:04.971Z,105.27
2018-11-05T21:07:33.999Z,98.40
2018-11-05T21:10:03.173Z,96.10
2018-11-05T21:12:32.676Z,99.07
2018-11-05T21:15:01.416Z,96.57
2018-11-05T21:17:30.077Z,102.97
2018-11-05T21:19:58.810Z,98.13
2018-11-05T21:22:28.477Z,88.43
2018-11-05T21:24:57.272Z,102.33
2018-11-05T21:27:26.428Z,94.50
2018-11-05T21:29:55.097Z,97.03
2018-11-05T21:32:25.660Z,98.07
2018-11-05T21:34:55.689Z,102.63
2018-11-05T21:37:24.514Z,99.27
2018-11-05T21:39:53.184Z,96.63
2018-11-05T21:42:22.372Z,107.33
2018-11-05T21:44:51.098Z,99.93
2018-11-05T21:47:19.756Z,93.87
2018-11-05T21:49:48.509Z,106.67
2018-11-05T21:52:17.150Z,98.73
2018-11-05T21:54:46.209Z,93.83
2018-11-05T21:57:14.936Z,104.53
2018-11-05T21:59:43.597Z,88.57
2018-11-05T22:02:12.250Z,103.17
2018-11-05T22:04:41.005Z,104.03
2018-11-05T22:07:09.676Z,106.43
2018-11-05T22:09:38.318Z,98.17
2018-11-05T22:12:07.094Z,109.77
2018-11-05T22:14:35.807Z,101.63
2018-11-05T22:17:04.445Z,95.83
2018-11-05T22:19:33.150Z,104.67
2018-11-05T22:22:07.415Z,108.30
2018-11-05T22:24:36.057Z,114.53
2018-11-05T22:27:04.778Z,110.53
2018-11-05T22:29:33.413Z,102.23
2018-11-05T22:32:02.067Z,96.70
2018-11-05T22:34:30.739Z,110.67
2018-11-05T22:36:59.449Z,102.47
2018-11-05T22:39:28.089Z,109.27
2018-11-05T22:41:56.723Z,109.40
2018-11-05T22:44:25.460Z,96.80
2018-11-05T22:46:54.281Z,105.50
2018-11-05T22:49:22.880Z,117.93
2018-11-05T22:51:51.559Z,110.70
2018-11-05T22:54:20.195Z,104.00
2018-11-05T22:56:48.913Z,113.20
2018-11-05T22:59:17.609Z,111.37
2018-11-05T23:01:51.345Z,111.03
2018-11-05T23:04:20.709Z,107.50
2018-11-05T23:06:50.176Z,107.50
2018-11-05T23:09:18.861Z,109.80
2018-11-05T23:11:47.961Z,114.70
2018-11-05T23:14:16.608Z,100.23
2018-11-05T23:16:45.518Z,108.87
2018-11-05T23:19:14.783Z,118.50
2018-11-05T23:21:43.489Z,114.53
2018-11-05T23:24:12.150Z,116.07
2018-11-05T23:26:40.788Z,119.00
2018-11-05T23:29:09.408Z,111.27
2018-11-05T23:31:38.018Z,107.50
2018-11-05T23:34:06.841Z,109.03
2018-11-05T23:36:35.486Z,119.00
2018-11-05T23:39:09.488Z,98.63
2018-11-05T23:41:38.225Z,101.30
2018-11-05T23:44:07.356Z,111.33
2018-11-05T23:46:36.134Z,116.07
2018-11-05T23:49:04.875Z,108.60
2018-11-05T23:51:33.580Z,111.43
2018-11-05T23:54:02.189Z,110.43
2018-11-05T23:56:30.897Z,109.90
2018-11-05T23:58:59.565Z,104.83
